地図

経路データ

SID SEASON NUMBER BASIN SUBBASIN NAME ISO_TIME NATURE LAT LON WMO_WIND WMO_PRES WMO_AGENCY TRACK_TYPE DIST2LAND LANDFALL IFLAG USA_AGENCY USA_ATCF_ID USA_LAT USA_LON USA_RECORD USA_STATUS USA_WIND USA_PRES USA_SSHS USA_R34_NE USA_R34_SE USA_R34_SW USA_R34_NW USA_R50_NE USA_R50_SE USA_R50_SW USA_R50_NW USA_R64_NE USA_R64_SE USA_R64_SW USA_R64_NW USA_POCI USA_ROCI USA_RMW USA_EYE TOKYO_LAT TOKYO_LON TOKYO_GRADE TOKYO_WIND TOKYO_PRES TOKYO_R50_DIR TOKYO_R50_LONG TOKYO_R50_SHORT TOKYO_R30_DIR TOKYO_R30_LONG TOKYO_R30_SHORT TOKYO_LAND CMA_LAT CMA_LON CMA_CAT CMA_WIND CMA_PRES HKO_LAT HKO_LON HKO_CAT HKO_WIND HKO_PRES NEWDELHI_LAT NEWDELHI_LON NEWDELHI_GRADE NEWDELHI_WIND NEWDELHI_PRES NEWDELHI_CI NEWDELHI_DP NEWDELHI_POCI REUNION_LAT REUNION_LON REUNION_TYPE REUNION_WIND REUNION_PRES REUNION_TNUM REUNION_CI REUNION_RMW REUNION_R34_NE REUNION_R34_SE REUNION_R34_SW REUNION_R34_NW REUNION_R50_NE REUNION_R50_SE REUNION_R50_SW REUNION_R50_NW REUNION_R64_NE REUNION_R64_SE REUNION_R64_SW REUNION_R64_NW BOM_LAT BOM_LON BOM_TYPE BOM_WIND BOM_PRES BOM_TNUM BOM_CI BOM_RMW BOM_R34_NE BOM_R34_SE BOM_R34_SW BOM_R34_NW BOM_R50_NE BOM_R50_SE BOM_R50_SW BOM_R50_NW BOM_R64_NE BOM_R64_SE BOM_R64_SW BOM_R64_NW BOM_ROCI BOM_POCI BOM_EYE BOM_POS_METHOD BOM_PRES_METHOD NADI_LAT NADI_LON NADI_CAT NADI_WIND NADI_PRES WELLINGTON_LAT WELLINGTON_LON WELLINGTON_WIND WELLINGTON_PRES DS824_LAT DS824_LON DS824_STAGE DS824_WIND DS824_PRES TD9636_LAT TD9636_LON TD9636_STAGE TD9636_WIND TD9636_PRES TD9635_LAT TD9635_LON TD9635_WIND TD9635_PRES TD9635_ROCI NEUMANN_LAT NEUMANN_LON NEUMANN_CLASS NEUMANN_WIND NEUMANN_PRES MLC_LAT MLC_LON MLC_CLASS MLC_WIND MLC_PRES USA_GUST BOM_GUST BOM_GUST_PER REUNION_GUST REUNION_GUST_PER USA_SEAHGT USA_SEARAD_NE USA_SEARAD_SE USA_SEARAD_SW USA_SEARAD_NW STORM_SPEED STORM_DIR
1945272N18089 1945 67 NI BB NOT_NAMED 1945-09-28 18:00:00 TS 17.6000 89.3000 main 406 398 O________O____ jtwc_io IO081945 17.6000 89.3000 -1 17.6000 89.3000 TC 1 237
1945272N18089 1945 67 NI BB NOT_NAMED 1945-09-28 21:00:00 TS 17.5625 89.2425 main 398 390 P________P____ IO081945 17.5625 89.2425 -1 17.5625 89.2425 TC 2 270
1945272N18089 1945 67 NI BB NOT_NAMED 1945-09-29 00:00:00 TS 17.6000 89.1000 main 390 352 O________O____ jtwc_io IO081945 17.6000 89.1000 -1 17.6000 89.1000 TC 25 5 296
1945272N18089 1945 67 NI BB NOT_NAMED 1945-09-29 03:00:00 TS 17.7666 88.8089 main 352 307 P________PO___ IO081945 17.7624 88.8100 -1 17.7624 88.8100 TC 25 17.8000 88.8000 1 8 301
1945272N18089 1945 67 NI BB NOT_NAMED 1945-09-29 06:00:00 TS 18.0074 88.3884 main 307 255 O________OP___ jtwc_io IO081945 18.0000 88.4000 -1 18.0000 88.4000 TC 25 18.0368 88.3418 1 10 300
1945272N18089 1945 67 NI BB NOT_NAMED 1945-09-29 09:00:00 TS 18.2551 87.9018 main 246 197 P________PP___ IO081945 18.2501 87.9076 -1 18.2501 87.9076 TC 25 18.2684 87.8864 1 11 298
1945272N18089 1945 67 NI BB NOT_NAMED 1945-09-29 12:00:00 TS 18.4969 87.4126 main 197 158 O________OP___ jtwc_io IO081945 18.5000 87.4000 -1 18.5000 87.4000 TC 25 18.4908 87.4377 1 10 297
1945272N18089 1945 67 NI BB NOT_NAMED 1945-09-29 15:00:00 TS 18.6999 86.9898 main 158 123 P________PO___ IO081945 18.6998 86.9847 -1 18.6998 86.9847 TC 25 18.7000 87.0000 1 9 297
1945272N18089 1945 67 NI BB NOT_NAMED 1945-09-29 18:00:00 TS 18.8988 86.5922 main 123 88 O________OP___ jtwc_io IO081945 18.9000 86.6000 -1 18.9000 86.6000 TC 25 18.8963 86.5767 1 9 299
1945272N18089 1945 67 NI BB NOT_NAMED 1945-09-29 21:00:00 TS 19.1273 86.1896 main 88 44 P________PP___ IO081945 19.1424 86.1999 -1 19.1424 86.1999 TC 25 19.0972 86.1689 1 9 302
1945272N18089 1945 67 NI BB NOT_NAMED 1945-09-30 00:00:00 TS 19.3748 85.7922 main 44 0 O________OP___ jtwc_io IO081945 19.4000 85.8000 -1 19.4000 85.8000 TC 25 19.3245 85.7766 1 9 303
1945272N18089 1945 67 NI BB NOT_NAMED 1945-09-30 03:00:00 TS 19.6183 85.3948 main 0 0 P________PO___ IO081945 19.6275 85.3923 -1 19.6275 85.3923 TC 25 19.6000 85.4000 1 9 306
1945272N18089 1945 67 NI BB NOT_NAMED 1945-09-30 06:00:00 TS 19.9111 85.0091 main 0 0 O________OP___ jtwc_io IO081945 19.9000 85.0000 -1 19.9000 85.0000 TC 25 19.9332 85.0273 1 10 313
1945272N18089 1945 67 NI BB NOT_NAMED 1945-09-30 09:00:00 TS 20.2807 84.6465 main 0 0 P________PP___ IO081945 20.2624 84.6349 -1 20.2624 84.6349 TC 25 20.3173 84.6696 1 10 321
1945272N18089 1945 67 NI BB NOT_NAMED 1945-09-30 12:00:00 TS 20.7142 84.3090 main 0 0 O________OP___ jtwc_io IO081945 20.7000 84.3000 -1 20.7000 84.3000 TC 25 20.7427 84.3271 1 11 326
1945272N18089 1945 67 NI BB NOT_NAMED 1945-09-30 15:00:00 TS 21.1899 83.9949 main 0 0 P________PO___ IO081945 21.1849 83.9923 -1 21.1849 83.9923 TC 25 21.2000 84.0000 1 11 330
1945272N18089 1945 67 NI BB NOT_NAMED 1945-09-30 18:00:00 TS 21.6922 83.6951 main 0 0 O________OP___ jtwc_io IO081945 21.7000 83.7000 -1 21.7000 83.7000 TC 25 21.6805 83.6877 1 12 331
1945272N18089 1945 67 NI BB NOT_NAMED 1945-09-30 21:00:00 TS 22.1934 83.3959 main 0 0 P________PP___ IO081945 22.2051 83.4029 -1 22.2051 83.4029 TC 25 22.1778 83.3866 1 11 331
1945272N18089 1945 67 NI BB NOT_NAMED 1945-10-01 00:00:00 TS 22.6931 83.0961 main 0 0 O________OP___ jtwc_io IO081945 22.7000 83.1000 -1 22.7000 83.1000 TC 25 22.6863 83.0922 1 12 331
1945272N18089 1945 67 NI BB NOT_NAMED 1945-10-01 03:00:00 NR 23.2000 82.8000 main 0 __________O___ IO081945 -1 TC 23.2000 82.8000 1 12 332

IBTrACS Databaseについて

本データベースは、米国NOAAが公開する1842年以降の世界の熱帯低気圧のベストトラックデータアーカイブInternational Best Track Archive for Climate Stewardship (IBTrACS)を、ウェブで閲覧しやすい形式に変換したものです。

最終更新日:2021-11-26